Time;durP1;ratioP1;P1;durP2;ratioP2;P2;SDS_P1;SDS_P2;PMS_P1;PMS_P2;Temp;Humidity;BMP_temperature;BMP_pressure;BME280_temperature;BME280_humidity;BME280_pressure;Samples;Min_cycle;Max_cycle;Signal;HPM_P1;HPM_P2
2021/05/04 07:43:15;;;;;;;5.28;2.00;;;12.70;99.90;;;;;;12127726;27;20339;-76
2021/05/04 07:49:02;;;;;;;11.02;2.08;;;13.00;99.90;;;;;;12129003;28;20081;-85
2021/05/04 07:54:51;;;;;;;36.38;18.58;;;13.90;99.90;;;;;;12123217;28;20749;-78
2021/05/04 08:00:38;;;;;;;7.88;2.50;;;14.20;99.90;;;;;;12119040;28;20494;-78
2021/05/04 08:06:25;;;;;;;7.03;1.83;;;14.40;99.90;;;;;;12123179;28;20101;-78
2021/05/04 08:12:11;;;;;;;5.90;1.90;;;14.50;99.90;;;;;;12131224;28;20053;-76
2021/05/04 08:18:01;;;;;;;7.97;2.05;;;14.60;99.90;;;;;;12117364;28;20055;-77
2021/05/04 08:23:47;;;;;;;7.97;1.55;;;14.80;99.90;;;;;;12437361;22;20061;-74
2021/05/04 08:29:34;;;;;;;3.22;1.20;;;14.80;99.90;;;;;;12000912;28;20046;-75
2021/05/04 08:35:22;;;;;;;9.30;1.63;;;14.80;99.90;;;;;;11992335;28;20126;-75
2021/05/04 08:41:09;;;;;;;6.68;1.60;;;15.00;99.90;;;;;;12003047;28;20051;-75
2021/05/04 08:46:56;;;;;;;5.28;1.65;;;14.70;99.90;;;;;;12000297;28;20057;-76
2021/05/04 08:52:43;;;;;;;2.67;1.48;;;14.90;99.90;;;;;;11981779;28;20372;-75
2021/05/04 08:58:31;;;;;;;8.18;1.60;;;14.80;99.90;;;;;;11971991;28;20044;-76
2021/05/04 09:04:31;;;;;;;6.20;1.67;;;14.90;99.90;;;;;;11977400;28;20052;-75
2021/05/04 09:10:31;;;;;;;3.95;1.27;;;14.80;99.90;;;;;;11977625;28;20048;-77
2021/05/04 09:16:26;;;;;;;7.45;1.58;;;15.20;99.90;;;;;;11968015;28;20111;-74
2021/05/04 09:22:40;;;;;;;5.15;1.50;;;15.40;99.90;;;;;;11967608;28;20056;-78
2021/05/04 09:28:27;;;;;;;3.55;1.25;;;15.50;99.90;;;;;;11977174;28;20420;-75
2021/05/04 09:34:20;;;;;;;6.22;1.52;;;15.60;99.90;;;;;;11978219;28;20052;-74
2021/05/04 09:40:24;;;;;;;10.13;1.55;;;15.90;99.90;;;;;;11980387;28;20563;-75
2021/05/04 09:46:11;;;;;;;10.60;1.52;;;16.10;99.90;;;;;;11979215;28;20083;-77
2021/05/04 09:52:18;;;;;;;7.65;1.75;;;16.20;99.90;;;;;;11983660;28;20387;-75
2021/05/04 09:58:08;;;;;;;9.43;1.60;;;15.90;99.90;;;;;;11985882;28;20052;-77
2021/05/04 10:03:55;;;;;;;5.28;1.50;;;16.20;99.90;;;;;;11983564;28;20057;-76
2021/05/04 10:09:42;;;;;;;9.10;2.05;;;16.30;97.90;;;;;;11826623;28;20448;-76
2021/05/04 10:15:28;;;;;;;8.32;1.50;;;16.30;96.00;;;;;;11883075;28;20053;-76
2021/05/04 10:21:18;;;;;;;7.10;1.60;;;16.30;95.80;;;;;;11892389;28;20504;-77
2021/05/04 10:27:05;;;;;;;12.10;1.60;;;16.20;95.10;;;;;;11864073;28;20057;-76
2021/05/04 10:32:53;;;;;;;14.50;1.60;;;16.20;94.60;;;;;;11887156;28;20107;-76
2021/05/04 10:38:54;;;;;;;7.65;1.58;;;16.40;93.90;;;;;;11890438;28;20435;-75
2021/05/04 10:45:10;;;;;;;9.93;1.65;;;16.10;93.00;;;;;;11884536;28;20144;-75
2021/05/04 10:50:57;;;;;;;13.88;2.25;;;15.90;93.80;;;;;;11886721;28;20112;-76
2021/05/04 10:56:46;;;;;;;7.05;1.88;;;15.90;94.10;;;;;;11871117;28;20520;-80
2021/05/04 11:02:33;;;;;;;6.72;1.58;;;15.80;93.50;;;;;;11888283;28;20150;-80
2021/05/04 11:08:19;;;;;;;9.05;1.85;;;15.60;93.20;;;;;;11857742;28;20050;-80
2021/05/04 11:14:18;;;;;;;5.47;1.50;;;15.60;94.10;;;;;;11871181;28;20050;-80
2021/05/04 11:20:32;;;;;;;11.70;2.03;;;15.90;93.50;;;;;;11870014;28;20825;-79
2021/05/04 11:26:44;;;;;;;12.43;1.83;;;15.90;93.60;;;;;;11869636;28;20054;-79
2021/05/04 11:32:43;;;;;;;8.60;1.67;;;15.90;94.20;;;;;;11894701;28;20051;-80
2021/05/04 11:38:29;;;;;;;11.30;2.30;;;15.80;94.10;;;;;;11882662;28;20424;-80
2021/05/04 11:44:25;;;;;;;161.02;92.38;;;15.90;93.20;;;;;;11884956;28;20138;-81
2021/05/04 11:50:15;;;;;;;15.77;2.22;;;16.30;92.90;;;;;;11877895;28;20124;-79
2021/05/04 11:56:07;;;;;;;9.38;1.67;;;16.70;91.10;;;;;;11881347;28;20046;-80
2021/05/04 12:01:53;;;;;;;8.70;1.67;;;16.70;90.20;;;;;;11887239;28;20046;-80
2021/05/04 12:07:43;;;;;;;11.90;2.08;;;16.90;92.70;;;;;;11881572;28;20053;-80
2021/05/04 12:13:30;;;;;;;8.13;2.15;;;16.50;93.20;;;;;;11886704;28;20057;-79
2021/05/04 12:19:22;;;;;;;9.50;2.00;;;16.50;94.20;;;;;;11875123;28;20058;-80
2021/05/04 12:25:10;;;;;;;10.75;2.03;;;16.10;93.60;;;;;;11913325;28;20167;-81
2021/05/04 12:31:02;;;;;;;12.93;2.00;;;16.20;93.10;;;;;;11890475;28;20061;-81
2021/05/04 12:36:49;;;;;;;10.80;1.83;;;16.10;91.50;;;;;;11883580;28;20049;-81
2021/05/04 12:42:36;;;;;;;10.13;1.80;;;16.30;90.60;;;;;;11875570;28;20133;-78
2021/05/04 12:48:25;;;;;;;10.35;1.65;;;16.50;89.20;;;;;;11853715;28;20050;-81
2021/05/04 12:54:15;;;;;;;7.78;1.95;;;16.50;86.60;;;;;;11878157;28;20058;-81
2021/05/04 13:00:14;;;;;;;11.60;1.70;;;16.40;87.10;;;;;;11855174;28;20054;-80
2021/05/04 13:06:18;;;;;;;7.97;1.90;;;16.50;83.40;;;;;;11892040;28;20048;-81
2021/05/04 13:18:49;;;;;;;10.55;1.92;;;16.40;92.90;;;;;;11896801;28;20111;-81
2021/05/04 13:30:42;;;;;;;9.48;1.67;;;16.30;91.20;;;;;;11876284;28;20046;-81
2021/05/04 13:36:30;;;;;;;7.40;1.48;;;16.10;90.30;;;;;;11886718;28;20081;-80
2021/05/04 13:48:25;;;;;;;7.82;2.00;;;16.10;89.80;;;;;;11880591;28;20472;-80
2021/05/04 13:54:13;;;;;;;9.88;1.83;;;16.30;90.00;;;;;;11880847;28;20048;-80
2021/05/04 14:00:00;;;;;;;7.32;1.98;;;16.60;90.40;;;;;;11882980;28;20054;-79
2021/05/04 14:30:10;;;;;;;8.60;2.00;;;16.00;99.90;;;;;;11880678;28;20539;-80
2021/05/04 14:36:06;;;;;;;10.25;2.20;;;16.40;99.90;;;;;;11888924;28;20053;-80
2021/05/04 15:00:48;;;;;;;12.75;2.15;;;16.70;93.70;;;;;;11833244;28;20421;-80
2021/05/04 15:06:36;;;;;;;9.50;2.03;;;16.20;91.30;;;;;;11823003;28;20065;-81
2021/05/04 15:12:22;;;;;;;10.52;1.83;;;16.60;90.80;;;;;;11828711;28;20046;-78
2021/05/04 15:18:18;;;;;;;13.43;2.38;;;16.40;88.70;;;;;;11858642;28;20054;-79
2021/05/04 15:24:07;;;;;;;13.95;2.05;;;16.90;86.20;;;;;;11886489;28;20061;-79
2021/05/04 15:29:53;;;;;;;17.23;2.40;;;17.20;84.60;;;;;;11875581;28;20515;-79
2021/05/04 15:35:40;;;;;;;11.07;2.10;;;17.30;80.50;;;;;;11883152;28;20045;-84
2021/05/04 15:41:27;;;;;;;17.38;2.95;;;17.60;79.80;;;;;;11841969;28;20056;-82
2021/05/04 15:47:18;;;;;;;11.50;1.92;;;18.10;79.10;;;;;;11886570;28;20065;-81
2021/05/04 15:53:11;;;;;;;15.65;2.58;;;17.60;82.10;;;;;;11886142;28;20050;-81
2021/05/04 16:11:17;;;;;;;12.75;2.35;;;18.50;85.60;;;;;;11869383;28;20039;-79
2021/05/04 16:17:05;;;;;;;9.95;2.33;;;20.20;80.40;;;;;;11885087;28;20058;-79
2021/05/04 16:22:53;;;;;;;16.85;3.25;;;21.70;75.20;;;;;;11895762;28;20089;-80
2021/05/04 16:28:46;;;;;;;12.20;3.00;;;20.90;71.80;;;;;;11888775;28;20141;-79
2021/05/04 16:34:33;;;;;;;18.02;2.97;;;20.20;73.70;;;;;;11885827;28;20144;-80
2021/05/04 16:40:20;;;;;;;10.57;2.28;;;19.40;73.90;;;;;;11878834;28;20045;-80
2021/05/04 16:46:09;;;;;;;13.20;2.33;;;18.90;75.40;;;;;;11878618;28;21420;-80
2021/05/04 16:51:58;;;;;;;10.27;2.38;;;18.40;77.20;;;;;;11888885;28;20057;-79
2021/05/04 16:57:45;;;;;;;12.50;2.22;;;18.30;75.00;;;;;;11880366;28;20133;-80
2021/05/04 17:03:34;;;;;;;13.30;2.20;;;17.90;78.40;;;;;;11897615;28;20072;-80
2021/05/04 17:15:27;;;;;;;11.60;2.08;;;18.10;78.80;;;;;;11871726;28;20068;-78
2021/05/04 17:21:13;;;;;;;10.93;2.13;;;19.80;73.10;;;;;;11885994;28;20423;-79
2021/05/04 17:27:02;;;;;;;11.38;2.63;;;22.70;64.30;;;;;;11900907;28;20053;-77
2021/05/04 17:32:48;;;;;;;26.85;14.45;;;25.10;56.60;;;;;;11863620;28;20112;-77
2021/05/04 17:38:35;;;;;;;43.50;20.25;;;25.50;53.40;;;;;;11868918;28;20050;-78
2021/05/04 17:44:22;;;;;;;16.77;5.10;;;25.00;53.60;;;;;;11870483;28;20054;-76
2021/05/04 17:50:10;;;;;;;13.98;3.83;;;25.00;53.60;;;;;;11883904;28;20172;-76
2021/05/04 17:55:57;;;;;;;84.32;40.50;;;23.70;55.00;;;;;;11873372;28;20111;-77
2021/05/04 18:01:52;;;;;;;22.02;4.53;;;23.00;56.40;;;;;;11876926;28;20178;-76
2021/05/04 18:07:39;;;;;;;12.88;2.42;;;22.20;58.20;;;;;;11905830;28;20049;-77
2021/05/04 18:13:45;;;;;;;11.70;2.92;;;22.10;58.10;;;;;;11868512;28;20046;-78
2021/05/04 18:19:57;;;;;;;13.13;4.88;;;21.00;60.60;;;;;;11880227;28;20050;-81
2021/05/04 18:25:43;;;;;;;12.52;2.20;;;20.40;63.40;;;;;;11889327;28;21027;-84
2021/05/04 18:31:32;;;;;;;22.25;3.47;;;20.60;63.70;;;;;;11883215;28;20137;-83
2021/05/04 18:37:43;;;;;;;12.60;2.40;;;21.10;62.30;;;;;;11883125;28;20054;-82
2021/05/04 18:44:58;;;;;;;26.75;10.15;;;20.30;64.00;;;;;;11887106;28;20050;-82
2021/05/04 19:08:20;;;;;;;16.25;3.38;;;17.10;76.00;;;;;;11761732;28;20046;-82
2021/05/04 20:09:15;;;;;;;17.85;4.68;;;15.70;84.30;;;;;;11849118;28;20129;-75
2021/05/04 20:15:02;;;;;;;16.88;3.47;;;15.80;83.40;;;;;;11857187;28;20057;-74
2021/05/04 20:20:49;;;;;;;13.30;2.40;;;15.60;81.80;;;;;;11862788;28;20065;-74
2021/05/04 20:26:36;;;;;;;17.70;2.63;;;15.40;78.10;;;;;;11854945;28;20077;-74
2021/05/04 20:32:23;;;;;;;11.73;2.47;;;14.90;76.60;;;;;;11859802;28;20781;-74
2021/05/04 20:38:09;;;;;;;12.45;2.30;;;14.80;75.00;;;;;;11859068;28;20085;-74
2021/05/04 20:44:02;;;;;;;21.00;2.65;;;14.80;75.50;;;;;;11872019;28;20053;-73
2021/05/04 20:49:48;;;;;;;12.23;2.42;;;14.90;74.00;;;;;;11862852;28;20116;-74
2021/05/04 20:55:35;;;;;;;11.00;2.38;;;14.90;73.50;;;;;;11871976;28;20049;-75
2021/05/04 21:01:22;;;;;;;14.30;2.45;;;14.60;74.10;;;;;;11848123;28;20108;-73
2021/05/04 21:07:11;;;;;;;12.30;2.33;;;14.30;74.80;;;;;;11872783;28;20453;-74
2021/05/04 21:12:58;;;;;;;9.05;2.50;;;14.30;74.40;;;;;;11872062;28;20058;-74
2021/05/04 21:18:46;;;;;;;12.77;2.00;;;14.20;74.90;;;;;;11855411;28;20060;-73
2021/05/04 21:24:35;;;;;;;15.18;3.00;;;13.90;75.20;;;;;;11879741;28;20052;-79
2021/05/04 21:30:22;;;;;;;13.60;2.55;;;13.90;75.30;;;;;;11889743;28;20536;-81
2021/05/04 21:36:11;;;;;;;20.90;3.03;;;14.00;75.30;;;;;;11885989;28;20050;-81
2021/05/04 21:41:57;;;;;;;13.48;2.50;;;13.80;76.10;;;;;;11886624;28;20058;-81
2021/05/04 21:47:45;;;;;;;19.00;2.95;;;13.90;76.00;;;;;;11891793;28;20814;-82
2021/05/04 21:53:32;;;;;;;13.50;2.55;;;13.90;76.10;;;;;;11895342;28;20539;-81
2021/05/04 21:59:18;;;;;;;17.75;2.88;;;14.00;76.20;;;;;;11872515;28;20096;-81
2021/05/04 22:05:05;;;;;;;12.77;2.53;;;13.90;76.00;;;;;;11895860;28;20061;-80
2021/05/04 22:10:53;;;;;;;17.95;2.88;;;13.90;76.20;;;;;;11869479;28;20497;-80
2021/05/04 22:34:52;;;;;;;15.07;2.55;;;14.10;76.80;;;;;;11873019;28;20540;-82
2021/05/04 22:40:41;;;;;;;16.85;3.15;;;14.00;77.10;;;;;;11887023;28;20412;-81
2021/05/04 22:46:49;;;;;;;11.65;2.55;;;14.00;77.30;;;;;;11875820;28;20404;-80
2021/05/04 23:16:59;;;;;;;16.75;3.00;;;13.50;78.20;;;;;;11869071;28;20488;-77
2021/05/04 23:22:46;;;;;;;11.95;2.53;;;13.50;78.10;;;;;;11859077;28;20575;-78
2021/05/04 23:28:33;;;;;;;13.70;2.40;;;13.50;78.20;;;;;;11887482;28;20053;-78
